Time;durP1;ratioP1;P1;durP2;ratioP2;P2;SDS_P1;SDS_P2;PMS_P1;PMS_P2;Temp;Humidity;BMP_temperature;BMP_pressure;BME280_temperature;BME280_humidity;BME280_pressure;Samples;Min_cycle;Max_cycle;Signal;HPM_P1;HPM_P2
2022/04/11 00:00:00;;;;;;;12.75;10.52;;;;;;;4.17;100.00;99667.91;5013951;28;20299;-76
2022/04/11 00:02:27;;;;;;;14.35;9.20;;;;;;;4.18;100.00;99669.66;5013770;28;20280;-76
2022/04/11 00:04:53;;;;;;;11.85;8.02;;;;;;;4.16;100.00;99663.50;5013634;28;20204;-78
2022/04/11 00:07:20;;;;;;;11.05;8.15;;;;;;;4.08;100.00;99654.88;5013648;28;20280;-75
2022/04/11 00:09:46;;;;;;;13.38;8.88;;;;;;;4.25;100.00;99657.00;5013566;28;20186;-75
2022/04/11 00:12:14;;;;;;;11.20;8.88;;;;;;;4.33;100.00;99658.50;5013697;28;20554;-76
2022/04/11 00:14:41;;;;;;;12.55;8.45;;;;;;;4.36;100.00;99653.09;5013395;28;20183;-76
2022/04/11 00:17:08;;;;;;;11.10;8.10;;;;;;;4.38;100.00;99656.56;5013490;28;20200;-76
2022/04/11 00:19:34;;;;;;;10.43;7.60;;;;;;;4.28;100.00;99651.59;5013515;28;20234;-76
2022/04/11 00:22:01;;;;;;;11.65;8.82;;;;;;;4.25;100.00;99651.69;5013716;28;20190;-76
2022/04/11 00:24:27;;;;;;;11.75;8.18;;;;;;;4.49;100.00;99660.69;5013436;28;20279;-76
2022/04/11 00:26:54;;;;;;;9.15;8.00;;;;;;;4.60;100.00;99643.41;5013576;28;20261;-76
2022/04/11 00:29:22;;;;;;;10.02;8.27;;;;;;;4.53;100.00;99646.34;5013650;28;20225;-76
2022/04/11 00:31:48;;;;;;;9.18;7.88;;;;;;;4.42;100.00;99637.81;5013495;28;20203;-76
2022/04/11 00:34:15;;;;;;;10.50;7.78;;;;;;;4.44;100.00;99639.50;5013117;28;20192;-76
2022/04/11 00:36:41;;;;;;;13.52;8.18;;;;;;;4.38;100.00;99631.72;5013198;28;20198;-76
2022/04/11 00:39:08;;;;;;;12.85;7.40;;;;;;;4.37;100.00;99633.50;5012921;28;20289;-76
2022/04/11 00:41:34;;;;;;;10.43;7.47;;;;;;;4.44;100.00;99620.00;5013071;28;20211;-75
2022/04/11 00:44:01;;;;;;;9.50;8.15;;;;;;;4.64;100.00;99614.00;5012885;28;20198;-76
2022/04/11 00:46:29;;;;;;;12.90;8.10;;;;;;;4.66;100.00;99614.78;5013069;28;20194;-76
2022/04/11 00:48:56;;;;;;;9.48;7.55;;;;;;;4.65;100.00;99602.41;5013171;28;20282;-76
2022/04/11 00:51:26;;;;;;;11.88;8.90;;;;;;;4.58;100.00;99597.25;5013209;28;20194;-76
2022/04/11 00:53:54;;;;;;;10.52;8.45;;;;;;;4.63;100.00;99594.44;5012980;28;20252;-76
2022/04/11 00:56:21;;;;;;;11.45;7.47;;;;;;;4.72;100.00;99599.44;5012631;28;20244;-76
2022/04/11 00:58:49;;;;;;;10.73;8.52;;;;;;;4.75;100.00;99596.69;5012702;28;20187;-76
2022/04/11 01:01:17;;;;;;;11.38;8.15;;;;;;;4.85;100.00;99594.56;5012439;28;20317;-75
2022/04/11 01:03:45;;;;;;;10.18;7.90;;;;;;;4.68;100.00;99602.28;5012828;28;20199;-75
2022/04/11 01:06:11;;;;;;;11.30;8.30;;;;;;;4.79;100.00;99603.69;5012891;28;20644;-75
2022/04/11 01:08:39;;;;;;;10.43;8.05;;;;;;;4.94;100.00;99588.91;5012437;28;20195;-76
2022/04/11 01:11:07;;;;;;;13.27;8.73;;;;;;;4.75;100.00;99596.69;5012516;28;20198;-76
2022/04/11 01:13:33;;;;;;;11.05;7.95;;;;;;;4.74;100.00;99584.28;5012682;28;20644;-76
2022/04/11 01:16:02;;;;;;;14.23;9.57;;;;;;;4.63;100.00;99583.75;5012667;28;20660;-76
2022/04/11 01:18:29;;;;;;;13.07;9.45;;;;;;;4.53;100.00;99577.03;5012735;28;20193;-76
2022/04/11 01:20:57;;;;;;;12.98;8.63;;;;;;;4.44;100.00;99578.19;5012460;28;20236;-76
2022/04/11 01:23:24;;;;;;;10.50;8.20;;;;;;;4.47;100.00;99575.41;5012333;28;20199;-76
2022/04/11 01:25:53;;;;;;;10.57;7.65;;;;;;;4.49;100.00;99568.25;5012004;28;20209;-77
2022/04/11 01:28:21;;;;;;;8.68;7.13;;;;;;;4.57;100.00;99560.88;5012648;28;20281;-76
2022/04/11 01:30:48;;;;;;;9.70;7.65;;;;;;;4.63;100.00;99561.56;5012946;28;20187;-76
2022/04/11 01:33:20;;;;;;;9.90;7.75;;;;;;;4.69;100.00;99566.69;5012282;28;20206;-76
2022/04/11 01:35:47;;;;;;;11.80;7.32;;;;;;;4.79;100.00;99566.34;5012112;28;20190;-76
2022/04/11 01:38:14;;;;;;;11.45;7.35;;;;;;;4.81;100.00;99568.94;5012191;28;20181;-76
2022/04/11 01:40:49;;;;;;;9.65;7.65;;;;;;;4.92;100.00;99564.09;5012169;28;20240;-75
2022/04/11 01:43:16;;;;;;;9.27;7.40;;;;;;;4.82;100.00;99573.34;5012000;28;20195;-75
2022/04/11 01:45:43;;;;;;;10.98;7.70;;;;;;;4.84;100.00;99563.50;5012289;28;20181;-75
2022/04/11 01:48:10;;;;;;;9.35;6.97;;;;;;;5.25;100.00;99558.47;5011946;28;20206;-75
2022/04/11 01:50:37;;;;;;;9.57;7.88;;;;;;;5.22;100.00;99550.53;5011843;28;20198;-75
2022/04/11 01:53:08;;;;;;;8.13;6.47;;;;;;;5.11;100.00;99544.72;5012394;28;20187;-76
2022/04/11 01:55:35;;;;;;;12.20;7.90;;;;;;;5.12;100.00;99546.50;5011657;28;20291;-76
2022/04/11 01:58:03;;;;;;;12.00;7.25;;;;;;;5.02;100.00;99545.97;5012081;28;20186;-76
2022/04/11 02:00:30;;;;;;;10.57;7.25;;;;;;;5.20;100.00;99547.97;5011784;28;20264;-76
2022/04/11 02:02:58;;;;;;;7.57;6.88;;;;;;;5.40;100.00;99538.31;5012119;28;20198;-77
2022/04/11 02:05:26;;;;;;;8.73;6.60;;;;;;;5.36;100.00;99542.03;5012034;28;20202;-76
2022/04/11 02:07:52;;;;;;;8.38;6.85;;;;;;;5.44;100.00;99530.13;5012163;28;20182;-76
2022/04/11 02:10:19;;;;;;;9.45;7.45;;;;;;;5.45;100.00;99536.34;5011673;28;20199;-76
2022/04/11 02:12:47;;;;;;;8.43;6.72;;;;;;;5.24;100.00;99538.00;5011784;28;20543;-76
2022/04/11 02:15:15;;;;;;;7.85;6.63;;;;;;;5.14;100.00;99534.81;5012025;28;20545;-76
2022/04/11 02:17:42;;;;;;;8.13;7.07;;;;;;;4.94;100.00;99535.56;5012212;28;20205;-76
2022/04/11 02:20:11;;;;;;;7.60;6.30;;;;;;;4.79;100.00;99528.09;5012096;28;20263;-76
2022/04/11 02:22:48;;;;;;;9.23;6.63;;;;;;;4.72;100.00;99518.56;5011796;28;20637;-76
2022/04/11 02:25:15;;;;;;;8.30;7.18;;;;;;;4.75;100.00;99529.16;5004879;28;20203;-76
2022/04/11 02:27:42;;;;;;;7.68;6.80;;;;;;;4.78;100.00;99521.88;4992382;28;20236;-76
2022/04/11 02:30:10;;;;;;;8.50;7.70;;;;;;;4.91;100.00;99524.13;5002111;28;20218;-76
2022/04/11 02:32:39;;;;;;;12.30;6.97;;;;;;;4.97;100.00;99530.09;5011704;28;20187;-76
2022/04/11 02:35:06;;;;;;;10.38;7.63;;;;;;;5.03;100.00;99526.34;5012254;28;20506;-76
2022/04/11 02:37:34;;;;;;;9.02;7.47;;;;;;;5.00;100.00;99529.13;5012770;28;20536;-76
2022/04/11 02:40:00;;;;;;;7.50;6.63;;;;;;;4.77;100.00;99525.50;5015658;28;20229;-76
2022/04/11 02:42:29;;;;;;;7.10;6.30;;;;;;;4.67;100.00;99521.41;5014052;28;20201;-76
2022/04/11 02:44:55;;;;;;;9.50;7.00;;;;;;;4.53;100.00;99515.69;5005883;28;20281;-76
2022/04/11 02:47:22;;;;;;;8.95;6.45;;;;;;;4.47;100.00;99513.22;4999486;28;20659;-76
2022/04/11 02:49:50;;;;;;;7.85;6.85;;;;;;;4.52;100.00;99516.59;4996239;28;20613;-76
2022/04/11 02:52:17;;;;;;;8.90;6.97;;;;;;;4.53;100.00;99524.56;4996132;28;20191;-76
2022/04/11 02:54:44;;;;;;;8.57;6.65;;;;;;;4.49;100.00;99517.56;4995976;28;20228;-76
2022/04/11 02:57:11;;;;;;;11.15;7.68;;;;;;;4.37;100.00;99526.00;4995707;28;20214;-76
2022/04/11 02:59:37;;;;;;;7.70;7.00;;;;;;;4.34;100.00;99512.75;4995878;28;20655;-76
2022/04/11 03:02:05;;;;;;;11.13;8.23;;;;;;;4.43;100.00;99514.25;5008687;28;20204;-75
2022/04/11 03:04:32;;;;;;;9.57;7.20;;;;;;;4.44;100.00;99522.19;5015181;28;20196;-75
2022/04/11 03:07:00;;;;;;;7.30;6.30;;;;;;;4.50;100.00;99503.34;5015708;28;20184;-77
2022/04/11 03:09:26;;;;;;;10.65;6.68;;;;;;;4.49;100.00;99498.03;5015140;28;20212;-75
2022/04/11 03:11:53;;;;;;;11.05;6.63;;;;;;;4.43;100.00;99501.78;5014984;28;20210;-75
2022/04/11 03:14:19;;;;;;;14.95;7.25;;;;;;;4.44;100.00;99508.00;5006035;28;20190;-75
2022/04/11 03:16:46;;;;;;;8.57;6.63;;;;;;;4.43;100.00;99500.91;4995776;28;20208;-75
2022/04/11 03:19:13;;;;;;;7.57;6.55;;;;;;;4.29;100.00;99498.72;5004371;28;20625;-76
2022/04/11 03:21:39;;;;;;;11.18;8.00;;;;;;;4.39;100.00;99501.03;5001991;28;20246;-76
2022/04/11 03:24:08;;;;;;;8.75;6.40;;;;;;;4.22;100.00;99492.72;4995489;28;20318;-76
2022/04/11 03:26:35;;;;;;;9.95;7.55;;;;;;;4.14;100.00;99494.81;4995461;28;20290;-76
2022/04/11 03:29:01;;;;;;;8.23;6.70;;;;;;;4.29;100.00;99496.06;5002816;28;20645;-75
2022/04/11 03:31:28;;;;;;;8.30;6.80;;;;;;;4.16;100.00;99501.81;5014664;28;20179;-75
2022/04/11 03:33:55;;;;;;;8.65;7.38;;;;;;;4.13;100.00;99496.56;5014613;28;20256;-75
2022/04/11 03:36:22;;;;;;;9.70;6.82;;;;;;;4.03;100.00;99502.28;5014789;28;20195;-75
2022/04/11 03:38:48;;;;;;;8.15;7.15;;;;;;;3.98;100.00;99497.09;5015009;28;20679;-76
2022/04/11 03:41:16;;;;;;;7.03;6.25;;;;;;;4.03;100.00;99502.28;5014762;28;20659;-76
2022/04/11 03:43:43;;;;;;;8.70;7.22;;;;;;;3.91;100.00;99501.75;5012647;28;20195;-75
2022/04/11 03:46:10;;;;;;;11.00;7.53;;;;;;;3.93;100.00;99493.69;5013407;28;20299;-76
2022/04/11 03:48:36;;;;;;;8.50;7.40;;;;;;;4.11;100.00;99489.56;5014377;28;20660;-76
2022/04/11 03:51:03;;;;;;;11.57;7.25;;;;;;;3.91;100.00;99490.22;5014419;28;20189;-76
2022/04/11 03:53:29;;;;;;;9.20;7.50;;;;;;;3.83;100.00;99479.81;5014315;28;20190;-76
2022/04/11 03:55:56;;;;;;;10.18;7.40;;;;;;;3.75;100.00;99481.84;5013994;28;20242;-75
2022/04/11 03:58:24;;;;;;;9.40;7.30;;;;;;;3.81;100.00;99481.66;5009494;28;20190;-76
2022/04/11 04:00:51;;;;;;;9.20;7.95;;;;;;;3.94;100.00;99482.13;4994956;28;20210;-76
2022/04/11 04:03:17;;;;;;;8.70;7.72;;;;;;;4.05;100.00;99482.66;4996394;28;20304;-76
2022/04/11 04:05:45;;;;;;;9.48;8.18;;;;;;;4.00;100.00;99483.72;5014428;28;20186;-76
2022/04/11 04:08:13;;;;;;;7.70;6.97;;;;;;;3.90;100.00;99485.81;5013285;28;20187;-76
2022/04/11 04:10:40;;;;;;;9.00;7.03;;;;;;;3.85;100.00;99477.97;4994710;28;20212;-75
2022/04/11 04:13:07;;;;;;;11.02;7.55;;;;;;;3.76;100.00;99475.63;4994602;28;20188;-75
2022/04/11 04:15:36;;;;;;;12.52;7.80;;;;;;;3.92;100.00;99470.66;4994750;28;20192;-76
2022/04/11 04:18:03;;;;;;;9.60;7.13;;;;;;;3.80;100.00;99474.59;4994421;28;20205;-76
2022/04/11 04:20:29;;;;;;;9.45;7.90;;;;;;;3.84;100.00;99473.56;4994526;28;20203;-76
2022/04/11 04:22:57;;;;;;;9.70;8.02;;;;;;;3.73;100.00;99467.72;4994670;28;20654;-76
2022/04/11 04:25:24;;;;;;;10.57;8.02;;;;;;;3.67;100.00;99465.25;4994624;28;20196;-75
2022/04/11 04:27:51;;;;;;;11.50;7.55;;;;;;;3.84;100.00;99465.56;4994097;28;20208;-76
2022/04/11 04:30:17;;;;;;;11.85;8.30;;;;;;;3.73;100.00;99451.72;4993969;28;20195;-76
2022/04/11 04:32:46;;;;;;;10.45;8.45;;;;;;;3.77;100.00;99453.38;4994255;28;20326;-76
2022/04/11 04:35:12;;;;;;;11.50;7.43;;;;;;;3.80;100.00;99457.72;4993924;28;20240;-76
2022/04/11 04:37:39;;;;;;;11.10;7.90;;;;;;;3.99;100.00;99453.53;4999872;28;20646;-76
2022/04/11 04:40:07;;;;;;;8.13;6.78;;;;;;;4.06;100.00;99460.41;5010628;28;20206;-76
2022/04/11 04:42:33;;;;;;;7.57;6.88;;;;;;;4.10;100.00;99461.19;5008990;28;20191;-75
2022/04/11 04:45:00;;;;;;;7.60;6.80;;;;;;;4.15;100.00;99459.22;4993793;28;20553;-76
2022/04/11 04:47:27;;;;;;;9.48;6.20;;;;;;;4.05;100.00;99464.00;4993695;28;20210;-77
2022/04/11 04:49:55;;;;;;;7.65;5.90;;;;;;;3.95;100.00;99457.22;5011652;28;20208;-75
2022/04/11 04:52:21;;;;;;;7.35;6.63;;;;;;;4.03;100.00;99457.00;5011101;28;20192;-75
2022/04/11 04:54:48;;;;;;;9.32;6.70;;;;;;;4.13;100.00;99456.59;5008253;28;20228;-76
2022/04/11 04:57:14;;;;;;;10.43;6.90;;;;;;;4.06;100.00;99454.22;4993445;28;20193;-75
2022/04/11 04:59:41;;;;;;;10.20;7.30;;;;;;;3.93;100.00;99449.31;4993014;28;20211;-77
2022/04/11 05:02:08;;;;;;;8.20;6.80;;;;;;;3.88;100.00;99459.22;4992486;28;20298;-75
2022/04/11 05:04:35;;;;;;;8.15;6.40;;;;;;;3.88;100.00;99456.56;4994714;28;20275;-76
2022/04/11 05:07:03;;;;;;;8.00;6.40;;;;;;;3.79;100.00;99456.00;4993471;28;20199;-76
2022/04/11 05:09:30;;;;;;;12.68;8.57;;;;;;;3.92;100.00;99452.00;4994126;28;20200;-76
2022/04/11 05:11:56;;;;;;;8.70;7.80;;;;;;;4.03;100.00;99451.66;4992678;28;20187;-76
2022/04/11 05:14:23;;;;;;;13.23;7.57;;;;;;;4.04;100.00;99450.72;5003012;28;20206;-76
2022/04/11 05:16:49;;;;;;;10.48;7.70;;;;;;;3.92;100.00;99462.66;4996472;28;20195;-76
2022/04/11 05:19:16;;;;;;;8.73;7.03;;;;;;;4.03;100.00;99459.66;4996363;28;20190;-76
2022/04/11 05:21:42;;;;;;;9.73;8.18;;;;;;;3.99;100.00;99460.69;5002967;28;20228;-76
2022/04/11 05:24:11;;;;;;;9.38;7.88;;;;;;;4.04;100.00;99464.03;4999153;28;20300;-75
2022/04/11 05:26:37;;;;;;;7.88;7.05;;;;;;;4.06;100.00;99464.88;4999843;28;20209;-76
2022/04/11 05:29:04;;;;;;;11.23;7.78;;;;;;;4.10;100.00;99474.50;4993660;28;20208;-76
2022/04/11 05:31:31;;;;;;;9.48;7.15;;;;;;;4.02;100.00;99468.56;5009523;28;20196;-75
2022/04/11 05:33:59;;;;;;;7.63;6.05;;;;;;;4.00;100.00;99465.06;5012513;28;20294;-76
2022/04/11 05:36:26;;;;;;;10.45;7.30;;;;;;;4.01;100.00;99480.16;5006917;28;20197;-77
2022/04/11 05:38:52;;;;;;;10.75;7.97;;;;;;;4.03;100.00;99480.97;5009705;28;20285;-77
2022/04/11 05:41:20;;;;;;;11.55;8.10;;;;;;;4.13;100.00;99477.91;5006577;28;20231;-76
2022/04/11 05:43:47;;;;;;;8.45;5.78;;;;;;;4.26;100.00;99475.72;5010835;28;20187;-77
2022/04/11 05:46:13;;;;;;;10.07;7.25;;;;;;;4.30;100.00;99461.38;5011980;28;20185;-76
2022/04/11 05:48:40;;;;;;;9.65;7.45;;;;;;;4.47;100.00;99465.22;4998880;28;20192;-75
2022/04/11 05:51:07;;;;;;;12.18;9.13;;;;;;;4.67;100.00;99467.19;5011522;28;20280;-77
2022/04/11 05:53:34;;;;;;;7.32;6.63;;;;;;;4.65;100.00;99464.56;5001545;28;20201;-76
2022/04/11 05:56:00;;;;;;;9.85;7.53;;;;;;;4.80;100.00;99471.16;4991826;28;20234;-77
2022/04/11 05:58:28;;;;;;;8.73;7.80;;;;;;;4.90;100.00;99464.53;4991685;28;20322;-76
2022/04/11 06:00:57;;;;;;;7.15;6.45;;;;;;;4.96;100.00;99469.66;4991698;28;20229;-76
2022/04/11 06:03:23;;;;;;;9.05;6.90;;;;;;;4.98;100.00;99462.47;4995591;28;20210;-75
2022/04/11 06:05:50;;;;;;;9.98;6.30;;;;;;;5.07;100.00;99453.25;5003882;28;20192;-76
2022/04/11 06:08:16;;;;;;;6.82;6.13;;;;;;;5.04;100.00;99452.47;5011649;28;20667;-77
2022/04/11 06:10:44;;;;;;;10.90;9.80;;;;;;;5.04;100.00;99445.34;4993507;28;20659;-77
2022/04/11 06:13:11;;;;;;;6.68;5.90;;;;;;;5.21;100.00;99456.25;4995534;28;20540;-77
2022/04/11 06:15:39;;;;;;;9.82;5.72;;;;;;;5.27;100.00;99456.94;4996160;28;20625;-77
2022/04/11 06:18:05;;;;;;;10.57;6.80;;;;;;;5.35;100.00;99462.88;4996234;28;20191;-77
2022/04/11 06:20:32;;;;;;;7.05;5.47;;;;;;;5.38;100.00;99455.63;4995614;28;20278;-78
2022/04/11 06:22:59;;;;;;;7.35;6.55;;;;;;;5.39;100.00;99462.69;5014696;28;20216;-77
2022/04/11 06:25:25;;;;;;;7.55;6.80;;;;;;;5.49;99.03;99455.16;5014502;28;20200;-77
2022/04/11 06:27:52;;;;;;;8.80;7.25;;;;;;;5.56;99.29;99464.69;5010670;28;20544;-78
2022/04/11 06:30:18;;;;;;;9.40;7.05;;;;;;;5.63;99.22;99462.63;5015406;28;20195;-78
2022/04/11 06:32:46;;;;;;;11.35;6.85;;;;;;;6.36;94.21;99463.25;5015023;28;20186;-77
2022/04/11 06:35:13;;;;;;;6.90;6.05;;;;;;;7.20;85.18;99463.94;5015424;28;20649;-78
2022/04/11 06:37:39;;;;;;;10.15;6.45;;;;;;;7.58;79.35;99464.81;5015019;28;20640;-77
2022/04/11 06:40:07;;;;;;;6.90;5.15;;;;;;;7.86;75.36;99458.97;5014764;28;20640;-77
2022/04/11 06:42:33;;;;;;;11.07;6.78;;;;;;;7.44;77.48;99465.47;5014535;28;20229;-78
2022/04/11 06:45:00;;;;;;;11.35;5.80;;;;;;;6.97;80.40;99467.69;5014675;28;20187;-78
2022/04/11 06:47:26;;;;;;;11.52;6.75;;;;;;;6.85;82.35;99456.59;5014591;28;20190;-78
2022/04/11 06:49:54;;;;;;;9.50;6.30;;;;;;;6.76;82.59;99462.38;5014820;28;20202;-77
2022/04/11 06:52:21;;;;;;;10.50;6.10;;;;;;;6.76;83.59;99467.72;5014983;28;20534;-77
2022/04/11 06:54:47;;;;;;;9.95;5.50;;;;;;;7.03;81.65;99462.03;5014586;28;20191;-78
2022/04/11 06:57:14;;;;;;;8.30;6.07;;;;;;;7.19;78.82;99465.75;5014599;28;20191;-77
2022/04/11 06:59:40;;;;;;;6.18;5.57;;;;;;;7.08;79.66;99465.38;5014595;28;20191;-77
2022/04/11 07:02:08;;;;;;;9.27;6.15;;;;;;;6.93;80.59;99466.09;5014427;28;20206;-77
2022/04/11 07:04:34;;;;;;;7.35;5.75;;;;;;;7.17;78.65;99464.06;5014773;28;20204;-78
2022/04/11 07:07:02;;;;;;;6.20;4.90;;;;;;;7.29;76.85;99459.03;5014224;28;20193;-78
2022/04/11 07:09:31;;;;;;;8.45;5.75;;;;;;;8.48;70.42;99448.75;5014127;28;20206;-78
2022/04/11 07:11:57;;;;;;;9.13;6.00;;;;;;;10.28;60.81;99460.25;5014168;28;20182;-78
2022/04/11 07:14:24;;;;;;;6.30;5.13;;;;;;;11.51;53.40;99462.66;5014377;28;20299;-78
2022/04/11 07:16:52;;;;;;;11.10;6.35;;;;;;;11.83;52.23;99447.09;5014281;28;20187;-78
2022/04/11 07:19:18;;;;;;;8.27;5.00;;;;;;;11.17;53.10;99456.69;5015918;28;20199;-77
2022/04/11 07:21:46;;;;;;;6.57;5.88;;;;;;;10.81;56.46;99444.56;5014111;28;20246;-78
2022/04/11 07:24:14;;;;;;;8.88;5.68;;;;;;;10.28;56.98;99433.34;5013300;28;20224;-78
2022/04/11 07:26:41;;;;;;;9.38;8.15;;;;;;;10.34;57.96;99435.72;5013857;28;20205;-79
2022/04/11 07:29:08;;;;;;;7.47;5.18;;;;;;;9.67;58.72;99436.94;5014023;28;20251;-78
2022/04/11 07:31:34;;;;;;;7.38;5.20;;;;;;;9.19;62.31;99442.28;5013749;28;20184;-78
2022/04/11 07:34:02;;;;;;;7.30;5.28;;;;;;;9.44;61.19;99435.56;5013746;28;20197;-78
2022/04/11 07:36:29;;;;;;;8.20;5.18;;;;;;;9.09;63.13;99432.97;5014077;28;20188;-79
2022/04/11 07:38:56;;;;;;;8.20;5.45;;;;;;;9.15;62.77;99436.19;5013753;28;20192;-78
2022/04/11 07:41:24;;;;;;;8.70;7.88;;;;;;;9.02;64.56;99428.91;5013920;28;20730;-79
2022/04/11 07:43:51;;;;;;;10.30;5.25;;;;;;;9.34;62.59;99425.31;5014009;28;20187;-79
2022/04/11 07:46:17;;;;;;;8.35;5.18;;;;;;;9.19;63.25;99424.34;5013761;28;20192;-78
2022/04/11 07:48:44;;;;;;;9.75;4.35;;;;;;;9.26;60.03;99419.50;5013523;28;20200;-79
2022/04/11 07:51:11;;;;;;;5.15;4.65;;;;;;;9.69;59.84;99414.38;5013517;28;20203;-78
2022/04/11 07:53:37;;;;;;;7.85;4.80;;;;;;;9.90;58.68;99417.63;5013584;28;20193;-79
2022/04/11 07:56:04;;;;;;;8.15;5.03;;;;;;;10.14;57.71;99419.88;5013504;28;20231;-79
2022/04/11 07:58:32;;;;;;;6.82;3.70;;;;;;;10.28;55.76;99421.72;5013974;28;20198;-79
2022/04/11 08:00:59;;;;;;;7.57;4.95;;;;;;;10.16;55.99;99416.13;5013776;28;20284;-78
2022/04/11 08:03:25;;;;;;;16.33;15.02;;;;;;;10.19;56.49;99415.94;5013539;28;20209;-78
2022/04/11 08:05:52;;;;;;;4.72;4.32;;;;;;;10.43;54.36;99416.31;5013699;28;20269;-79
2022/04/11 08:08:19;;;;;;;5.55;4.00;;;;;;;10.69;52.60;99416.56;5013110;28;20284;-78
2022/04/11 08:10:45;;;;;;;6.22;4.45;;;;;;;10.75;52.26;99423.41;5013356;28;20191;-79
2022/04/11 08:13:12;;;;;;;6.40;5.53;;;;;;;10.87;51.05;99414.53;5013290;28;20643;-78
2022/04/11 08:15:40;;;;;;;7.20;4.30;;;;;;;10.99;51.07;99410.22;5013147;28;20274;-79
2022/04/11 08:18:07;;;;;;;6.40;3.85;;;;;;;11.21;49.89;99412.44;5013383;28;20274;-79
2022/04/11 08:20:33;;;;;;;4.18;3.70;;;;;;;11.45;49.52;99405.47;5013345;28;20202;-79
2022/04/11 08:23:00;;;;;;;3.58;3.20;;;;;;;11.57;48.71;99402.94;5011656;28;20326;-79
2022/04/11 08:25:27;;;;;;;6.07;4.00;;;;;;;11.64;48.76;99396.16;5012918;28;20222;-79
2022/04/11 08:27:53;;;;;;;4.05;3.65;;;;;;;11.53;48.26;99393.31;5012993;28;20205;-79
2022/04/11 08:30:20;;;;;;;6.72;4.40;;;;;;;11.56;48.18;99395.81;5012692;28;20193;-79
2022/04/11 08:32:50;;;;;;;4.95;3.70;;;;;;;11.65;48.66;99396.06;5012914;28;20198;-79
2022/04/11 08:35:20;;;;;;;5.75;4.22;;;;;;;12.00;47.94;99390.19;5011897;28;20193;-79
2022/04/11 08:37:46;;;;;;;5.43;4.20;;;;;;;12.13;46.98;99392.94;5013381;28;20190;-79
2022/04/11 08:40:15;;;;;;;5.00;3.53;;;;;;;11.96;46.46;99390.50;5012980;28;20194;-79
2022/04/11 08:42:43;;;;;;;6.30;4.20;;;;;;;12.01;46.37;99386.53;5012718;28;20226;-79
2022/04/11 08:45:13;;;;;;;5.47;3.58;;;;;;;12.09;46.47;99391.41;5012939;28;20205;-79
2022/04/11 08:47:40;;;;;;;4.53;3.55;;;;;;;12.17;46.51;99389.06;5012677;28;20277;-79
2022/04/11 08:50:09;;;;;;;7.05;4.20;;;;;;;12.08;47.23;99385.16;5012650;28;20207;-78
2022/04/11 08:52:37;;;;;;;8.20;4.75;;;;;;;12.18;47.07;99381.81;5012767;28;20539;-79
2022/04/11 08:55:05;;;;;;;4.82;3.70;;;;;;;12.40;46.55;99389.31;5012103;28;20245;-79
2022/04/11 08:57:32;;;;;;;6.50;3.50;;;;;;;12.42;45.47;99388.25;5012355;28;20183;-78
2022/04/11 09:00:03;;;;;;;3.92;3.38;;;;;;;12.48;45.26;99379.72;5012327;28;20182;-79
2022/04/11 09:02:34;;;;;;;4.82;4.30;;;;;;;12.77;45.21;99392.16;5012539;28;20202;-80
2022/04/11 09:05:01;;;;;;;5.35;3.83;;;;;;;12.83;45.48;99389.03;5012197;28;20207;-79
2022/04/11 09:07:44;;;;;;;9.48;8.30;;;;;;;13.16;44.24;99396.56;5009252;28;20278;-78
2022/04/11 09:10:11;;;;;;;4.63;3.58;;;;;;;13.07;43.50;99389.09;5003562;28;20187;-78
2022/04/11 09:12:46;;;;;;;4.78;3.67;;;;;;;12.85;43.50;99387.06;4992584;28;20203;-78
2022/04/11 09:15:12;;;;;;;4.28;3.40;;;;;;;12.97;43.32;99391.59;5005589;28;20187;-78
2022/04/11 09:17:41;;;;;;;5.07;3.53;;;;;;;12.87;43.23;99382.44;5009724;28;20204;-79
2022/04/11 09:20:11;;;;;;;5.40;3.25;;;;;;;12.44;44.67;99383.59;4996040;28;20533;-79
2022/04/11 09:22:39;;;;;;;5.57;3.15;;;;;;;12.80;44.34;99387.41;4992316;28;20994;-79
2022/04/11 09:25:08;;;;;;;4.15;3.75;;;;;;;13.05;44.13;99381.13;4992219;28;20199;-79
2022/04/11 09:27:34;;;;;;;5.25;2.80;;;;;;;13.11;43.83;99388.78;5006278;28;20204;-79
2022/04/11 09:30:01;;;;;;;4.70;3.45;;;;;;;13.33;43.81;99373.72;5001200;28;20211;-79
2022/04/11 09:32:28;;;;;;;4.57;2.92;;;;;;;13.42;43.00;99378.47;4992439;28;20188;-79
2022/04/11 09:34:55;;;;;;;4.13;3.22;;;;;;;13.53;42.62;99374.97;5003454;28;20191;-79
2022/04/11 09:37:21;;;;;;;5.88;3.88;;;;;;;13.61;42.54;99379.81;5011074;28;20187;-80
2022/04/11 09:39:57;;;;;;;4.40;3.33;;;;;;;13.75;42.43;99374.25;5011363;28;20256;-79
2022/04/11 09:42:31;;;;;;;3.70;2.53;;;;;;;13.51;42.73;99374.22;5011660;28;20649;-78
2022/04/11 09:45:02;;;;;;;3.45;3.10;;;;;;;13.47;42.17;99357.34;5011933;28;20636;-79
2022/04/11 09:47:29;;;;;;;5.15;3.20;;;;;;;13.71;41.93;99361.91;5010182;28;20184;-79
2022/04/11 09:49:56;;;;;;;5.53;3.20;;;;;;;13.93;41.50;99359.31;5011743;28;20297;-78
2022/04/11 09:52:29;;;;;;;8.52;4.00;;;;;;;13.98;41.11;99359.84;5011536;28;20651;-79
2022/04/11 09:54:58;;;;;;;5.57;3.20;;;;;;;14.06;41.26;99361.09;4993328;28;20199;-79
2022/04/11 09:57:30;;;;;;;4.00;2.85;;;;;;;14.12;40.94;99355.22;4995142;28;20276;-78
2022/04/11 10:00:00;;;;;;;4.38;2.45;;;;;;;14.26;41.41;99355.00;4993472;28;20202;-78
2022/04/11 10:02:28;;;;;;;3.33;3.03;;;;;;;14.31;41.01;99349.22;5011323;28;20208;-78
2022/04/11 10:04:55;;;;;;;6.15;2.72;;;;;;;14.17;41.20;99347.59;5011129;28;20298;-78
2022/04/11 10:07:22;;;;;;;5.15;2.50;;;;;;;14.26;40.61;99344.16;5006687;28;20189;-78
2022/04/11 10:09:50;;;;;;;3.10;2.80;;;;;;;14.34;40.56;99338.19;4992877;28;20197;-79
2022/04/11 10:12:18;;;;;;;4.75;2.42;;;;;;;14.51;39.61;99336.84;4991763;28;20202;-77
2022/04/11 10:14:47;;;;;;;3.13;2.50;;;;;;;14.50;39.75;99329.72;4992102;28;21021;-77
2022/04/11 10:17:14;;;;;;;4.00;3.55;;;;;;;14.52;38.76;99335.88;4992018;28;20213;-78
2022/04/11 10:19:42;;;;;;;4.53;2.97;;;;;;;14.77;38.52;99332.13;5007686;28;20269;-78
2022/04/11 10:22:17;;;;;;;4.30;2.35;;;;;;;14.77;38.39;99332.97;5000042;28;20214;-78
2022/04/11 10:24:58;;;;;;;3.60;2.40;;;;;;;14.78;38.23;99326.56;4992013;28;20540;-78
2022/04/11 10:27:26;;;;;;;4.30;2.90;;;;;;;14.99;37.61;99326.69;5003189;28;20197;-78
2022/04/11 10:29:54;;;;;;;6.45;4.03;;;;;;;15.25;36.63;99307.44;5011438;28;20550;-78
2022/04/11 10:32:22;;;;;;;3.58;2.20;;;;;;;15.40;36.22;99318.88;4999134;28;20206;-78
2022/04/11 10:34:53;;;;;;;4.20;2.55;;;;;;;15.43;36.21;99318.63;4991961;28;20207;-78
2022/04/11 10:37:23;;;;;;;2.50;2.13;;;;;;;15.34;36.02;99298.53;4992635;28;20659;-78
2022/04/11 10:39:50;;;;;;;2.15;1.80;;;;;;;15.39;36.38;99300.88;4991265;28;20208;-78
2022/04/11 10:42:33;;;;;;;4.47;3.15;;;;;;;15.02;37.15;99293.03;4991598;28;20192;-78
2022/04/11 10:44:59;;;;;;;3.60;2.13;;;;;;;14.83;36.81;99295.50;4990535;28;20209;-78
2022/04/11 10:47:32;;;;;;;2.80;2.10;;;;;;;14.84;36.44;99297.25;5003099;28;20629;-78
2022/04/11 10:50:27;;;;;;;3.67;2.80;;;;;;;14.82;36.96;99293.81;4993573;28;20557;-78
2022/04/11 10:53:23;;;;;;;5.20;2.47;;;;;;;14.82;37.27;99282.97;5000675;28;21087;-77
2022/04/11 10:56:05;;;;;;;2.33;1.90;;;;;;;14.78;37.56;99279.63;5002101;28;20718;-77
2022/04/11 10:58:48;;;;;;;4.15;2.25;;;;;;;15.01;37.50;99275.03;4991856;28;20197;-79
2022/04/11 11:01:16;;;;;;;3.60;1.90;;;;;;;15.29;36.94;99273.66;4995028;28;20196;-77
2022/04/11 11:03:58;;;;;;;2.83;2.38;;;;;;;15.22;37.05;99261.59;5009106;28;20300;-79
2022/04/11 11:06:24;;;;;;;5.07;2.40;;;;;;;15.12;37.51;99258.75;5007387;28;20190;-77
2022/04/11 11:08:51;;;;;;;4.95;2.78;;;;;;;15.34;37.47;99248.84;5014208;28;20497;-78
2022/04/11 11:11:28;;;;;;;2.88;2.30;;;;;;;15.35;37.11;99250.56;5002900;28;20652;-79
2022/04/11 11:13:58;;;;;;;5.82;2.85;;;;;;;15.29;37.50;99240.25;5006484;28;20194;-78
2022/04/11 11:16:59;;;;;;;3.67;2.45;;;;;;;15.26;37.43;99246.75;4996632;28;20207;-78
2022/04/11 11:19:25;;;;;;;2.60;2.05;;;;;;;15.32;37.06;99245.41;4994270;28;20187;-79
2022/04/11 11:21:59;;;;;;;3.15;2.42;;;;;;;15.27;36.91;99239.50;4994536;28;20212;-79
2022/04/11 11:24:26;;;;;;;3.05;1.90;;;;;;;15.55;36.39;99236.19;4996339;28;20228;-78
2022/04/11 11:26:54;;;;;;;2.30;2.10;;;;;;;15.70;35.95;99227.75;4996086;28;20290;-78
2022/04/11 11:29:24;;;;;;;3.00;2.00;;;;;;;15.60;35.64;99228.53;4997360;28;20274;-79
2022/04/11 11:31:52;;;;;;;3.78;2.35;;;;;;;15.71;35.28;99226.78;5010776;28;20209;-78
2022/04/11 11:34:21;;;;;;;4.75;2.15;;;;;;;15.68;35.43;99213.44;5013556;28;20187;-78